createdAt,value
2018-06-04T00:00:50.816Z,100356.49
2018-06-04T00:03:21.354Z,100355.29
2018-06-04T00:05:51.945Z,100346.80
2018-06-04T00:08:22.520Z,100352.98
2018-06-04T00:10:53.136Z,100348.23
2018-06-04T00:13:23.696Z,100350.18
2018-06-04T00:15:54.304Z,100350.79
2018-06-04T00:18:24.863Z,100346.19
2018-06-04T00:20:55.436Z,100351.03
2018-06-04T00:23:26.099Z,100346.30
2018-06-04T00:25:56.642Z,100348.86
2018-06-04T00:28:27.258Z,100346.05
2018-06-04T00:30:57.845Z,100336.94
2018-06-04T00:33:28.474Z,100342.64
2018-06-04T00:35:59.088Z,100334.40
2018-06-04T00:38:29.679Z,100337.92
2018-06-04T00:41:00.285Z,100335.86
2018-06-04T00:43:30.975Z,100343.97
2018-06-04T00:46:01.595Z,100336.47
2018-06-04T00:48:32.340Z,100336.32
2018-06-04T00:51:02.950Z,100334.63
2018-06-04T00:53:33.523Z,100336.91
2018-06-04T00:56:18.363Z,100335.35
2018-06-04T00:58:48.962Z,100333.41
2018-06-04T01:01:19.608Z,100330.85
2018-06-04T01:03:50.224Z,100331.71
2018-06-04T01:06:20.773Z,100332.92
2018-06-04T01:08:51.356Z,100335.81
2018-06-04T01:11:21.949Z,100331.11
2018-06-04T01:13:52.521Z,100328.19
2018-06-04T01:16:23.141Z,100326.13
2018-06-04T01:18:53.694Z,100326.13
2018-06-04T01:21:24.293Z,100322.73
2018-06-04T01:23:54.900Z,100324.06
2018-06-04T01:26:25.490Z,100321.87
2018-06-04T01:28:56.080Z,100327.69
2018-06-04T01:31:26.677Z,100326.10
2018-06-04T01:33:57.231Z,100322.70
2018-06-04T01:36:27.820Z,100322.39
2018-06-04T01:38:58.502Z,100317.88
2018-06-04T01:41:29.118Z,100319.98
2018-06-04T01:43:59.711Z,100315.84
2018-06-04T01:46:30.296Z,100310.03
2018-06-04T01:49:00.958Z,100300.19
2018-06-04T01:51:31.543Z,100299.41
2018-06-04T01:54:01.818Z,100300.27
2018-06-04T01:56:32.289Z,100301.00
2018-06-04T01:59:02.923Z,100297.85
2018-06-04T02:01:33.522Z,100294.92
2018-06-04T02:04:04.101Z,100302.71
2018-06-04T02:06:34.730Z,100300.14
2018-06-04T02:09:07.110Z,100294.80
2018-06-04T02:11:37.743Z,100301.96
2018-06-04T02:14:08.381Z,100298.63
2018-06-04T02:16:39.048Z,100294.28
2018-06-04T02:19:09.632Z,100293.17
2018-06-04T02:21:40.308Z,100287.48
2018-06-04T02:24:11.161Z,100284.34
2018-06-04T02:26:41.733Z,100280.19
2018-06-04T02:29:12.326Z,100279.45
2018-06-04T02:31:42.906Z,100280.31
2018-06-04T02:34:13.489Z,100276.89
2018-06-04T02:36:44.028Z,100276.38
2018-06-04T02:39:14.729Z,100275.56
2018-06-04T02:41:45.327Z,100281.34
2018-06-04T02:44:15.917Z,100276.61
2018-06-04T02:46:46.507Z,100278.77
2018-06-04T02:49:17.094Z,100277.23
2018-06-04T02:51:47.737Z,100281.34
2018-06-04T02:54:18.375Z,100279.27
2018-06-04T02:56:48.939Z,100284.61
2018-06-04T02:59:19.527Z,100286.67
2018-06-04T03:01:50.094Z,100289.55
2018-06-04T03:04:20.689Z,100288.81
2018-06-04T03:06:51.314Z,100280.91
2018-06-04T03:09:21.927Z,100283.92
2018-06-04T03:11:52.548Z,100277.86
2018-06-04T03:14:23.114Z,100271.55
2018-06-04T03:16:53.718Z,100269.99
2018-06-04T03:19:24.370Z,100270.50
2018-06-04T03:21:54.995Z,100270.98
2018-06-04T03:24:25.660Z,100269.61
2018-06-04T03:26:56.308Z,100270.21
2018-06-04T03:29:26.941Z,100264.53
2018-06-04T03:31:57.494Z,100270.69
2018-06-04T03:34:28.141Z,100268.75
2018-06-04T03:36:58.769Z,100270.80
2018-06-04T03:39:29.372Z,100273.09
2018-06-04T03:41:59.981Z,100275.16
2018-06-04T03:44:30.660Z,100273.73
2018-06-04T03:47:01.312Z,100275.16
2018-06-04T03:49:31.955Z,100274.50
2018-06-04T03:52:02.508Z,100265.30
2018-06-04T03:54:33.178Z,100265.77
2018-06-04T03:57:03.810Z,100259.25
2018-06-04T03:59:34.447Z,100259.50
2018-06-04T04:02:05.124Z,100252.24
2018-06-04T04:04:35.750Z,100251.55
2018-06-04T04:07:06.349Z,100246.82
2018-06-04T04:09:36.974Z,100254.43
2018-06-04T04:12:07.628Z,100250.69
2018-06-04T04:14:38.255Z,100252.28
2018-06-04T04:17:08.810Z,100251.94
2018-06-04T04:19:39.433Z,100256.28
2018-06-04T04:22:10.079Z,100250.48
2018-06-04T04:24:40.709Z,100252.92
2018-06-04T04:27:11.294Z,100251.50
2018-06-04T04:29:41.918Z,100252.36
2018-06-04T04:32:12.499Z,100253.44
2018-06-04T04:34:43.137Z,100255.02
2018-06-04T04:37:13.780Z,100253.24
2018-06-04T04:39:44.803Z,100256.52
2018-06-04T04:42:15.451Z,100258.34
2018-06-04T04:44:46.118Z,100249.02
2018-06-04T04:47:16.767Z,100251.20
2018-06-04T04:49:47.462Z,100258.25
2018-06-04T04:52:18.166Z,100256.91
2018-06-04T04:54:48.799Z,100253.03
2018-06-04T04:57:20.031Z,100250.27
2018-06-04T04:59:50.688Z,100252.22
2018-06-04T05:02:21.350Z,100250.53
2018-06-04T05:04:52.091Z,100255.03
2018-06-04T05:07:22.749Z,100252.23
2018-06-04T05:09:53.409Z,100250.89
2018-06-04T05:12:23.990Z,100246.31
2018-06-04T05:14:54.670Z,100239.48
2018-06-04T05:17:25.349Z,100243.36
2018-06-04T05:19:56.064Z,100239.09
2018-06-04T05:22:26.683Z,100238.59
2018-06-04T05:24:57.585Z,100240.15
2018-06-04T05:27:28.234Z,100236.01
2018-06-04T05:29:58.863Z,100241.63
2018-06-04T05:32:29.445Z,100238.44
2018-06-04T05:35:00.049Z,100243.98
2018-06-04T05:37:30.629Z,100242.88
2018-06-04T05:40:01.282Z,100242.75
2018-06-04T05:42:32.884Z,100252.40
2018-06-04T05:45:03.658Z,100248.56
2018-06-04T05:47:34.293Z,100243.70
2018-06-04T05:50:05.048Z,100250.91
2018-06-04T05:52:35.754Z,100250.11
2018-06-04T05:55:06.424Z,100255.40
2018-06-04T05:57:37.260Z,100251.42
2018-06-04T06:00:07.925Z,100252.58
2018-06-04T06:02:38.471Z,100253.38
2018-06-04T06:05:09.120Z,100252.97
2018-06-04T06:07:39.689Z,100245.34
2018-06-04T06:10:10.286Z,100245.88
2018-06-04T06:12:40.874Z,100248.78
2018-06-04T06:15:11.515Z,100244.17
2018-06-04T06:17:42.077Z,100240.45
2018-06-04T06:20:12.758Z,100241.41
2018-06-04T06:22:43.349Z,100232.27
2018-06-04T06:25:14.024Z,100230.47
2018-06-04T06:27:44.659Z,100226.83
2018-06-04T06:30:15.367Z,100230.15
2018-06-04T06:32:45.994Z,100229.18
2018-06-04T06:35:16.588Z,100232.88
2018-06-04T06:37:47.237Z,100227.90
2018-06-04T06:40:17.846Z,100235.82
2018-06-04T06:42:48.560Z,100233.25
2018-06-04T06:45:19.228Z,100232.98
2018-06-04T06:47:49.892Z,100234.67
2018-06-04T06:50:51.464Z,100234.61
2018-06-04T06:53:22.108Z,100230.18
2018-06-04T06:55:52.839Z,100234.37
2018-06-04T06:58:23.443Z,100232.93
2018-06-04T07:00:54.083Z,100227.34
2018-06-04T07:03:24.388Z,100228.20
2018-06-04T07:05:54.949Z,100226.34
2018-06-04T07:08:25.529Z,100228.73
2018-06-04T07:10:56.174Z,100232.11
2018-06-04T07:13:26.809Z,100226.66
2018-06-04T07:15:57.471Z,100232.98
2018-06-04T07:18:28.066Z,100228.77
2018-06-04T07:20:58.667Z,100228.61
2018-06-04T07:23:29.314Z,100225.91
2018-06-04T07:25:59.945Z,100222.10
2018-06-04T07:28:30.639Z,100226.19
2018-06-04T07:31:01.235Z,100226.80
2018-06-04T07:33:31.533Z,100226.84
2018-06-04T07:36:12.098Z,100229.42
2018-06-04T07:38:42.699Z,100221.47
2018-06-04T07:41:13.325Z,100221.66
2018-06-04T07:43:43.904Z,100221.95
2018-06-04T07:46:14.530Z,100215.20
2018-06-04T07:48:45.146Z,100215.34
2018-06-04T07:51:15.759Z,100211.55
2018-06-04T07:53:46.412Z,100208.40
2018-06-04T07:56:17.022Z,100215.25
2018-06-04T07:58:47.627Z,100205.77
2018-06-04T08:01:18.319Z,100212.96
2018-06-04T08:03:48.994Z,100207.43
2018-06-04T08:06:19.657Z,100209.63
2018-06-04T08:08:50.202Z,100208.65
2018-06-04T08:11:20.910Z,100212.59
2018-06-04T08:13:51.569Z,100210.39
2018-06-04T08:16:22.189Z,100205.02
2018-06-04T08:18:52.794Z,100202.99
2018-06-04T08:21:23.531Z,100201.62
2018-06-04T08:23:54.211Z,100195.16
2018-06-04T08:26:24.845Z,100189.08
2018-06-04T08:28:55.415Z,100189.36
2018-06-04T08:31:26.058Z,100182.73
2018-06-04T08:33:56.721Z,100188.79
2018-06-04T08:36:27.477Z,100184.84
2018-06-04T08:38:58.032Z,100182.19
2018-06-04T08:41:28.634Z,100185.30
2018-06-04T08:43:59.278Z,100178.43
2018-06-04T08:46:29.797Z,100178.43
2018-06-04T08:49:00.422Z,100172.20
2018-06-04T08:51:31.011Z,100178.19
2018-06-04T08:54:01.621Z,100176.67
2018-06-04T08:56:32.167Z,100181.14
2018-06-04T08:59:02.902Z,100178.20
2018-06-04T09:01:33.506Z,100175.70
2018-06-04T09:04:04.125Z,100177.97
2018-06-04T09:06:34.705Z,100175.33
2018-06-04T09:09:07.100Z,100171.17
2018-06-04T09:11:37.664Z,100170.80
2018-06-04T09:14:08.245Z,100170.61
2018-06-04T09:16:38.839Z,100163.16
2018-06-04T09:19:09.484Z,100163.28
2018-06-04T09:21:40.082Z,100161.16
2018-06-04T09:24:10.816Z,100166.36
2018-06-04T09:26:41.389Z,100168.00
2018-06-04T09:29:11.997Z,100158.48
2018-06-04T09:31:42.524Z,100166.61
2018-06-04T09:34:13.145Z,100162.80
2018-06-04T09:36:43.755Z,100160.27
2018-06-04T09:39:14.423Z,100155.86
2018-06-04T09:41:45.073Z,100161.58
2018-06-04T09:44:15.688Z,100157.72
2018-06-04T09:46:46.273Z,100160.37
2018-06-04T09:49:16.915Z,100164.21
2018-06-04T09:51:47.511Z,100154.01
2018-06-04T09:54:18.076Z,100152.81
2018-06-04T09:56:48.719Z,100151.16
2018-06-04T09:59:19.437Z,100150.77
2018-06-04T10:01:50.012Z,100152.30
2018-06-04T10:04:20.652Z,100149.03
2018-06-04T10:06:51.203Z,100153.57
2018-06-04T10:09:22.156Z,100143.59
2018-06-04T10:11:52.764Z,100138.99
2018-06-04T10:14:58.838Z,100140.17
2018-06-04T10:17:29.449Z,100141.83
2018-06-04T10:20:00.066Z,100150.56
2018-06-04T10:22:30.670Z,100141.73
2018-06-04T10:25:01.262Z,100140.09
2018-06-04T10:27:31.900Z,100146.25
2018-06-04T10:30:02.491Z,100146.13
2018-06-04T10:32:33.078Z,100143.00
2018-06-04T10:35:03.717Z,100142.09
2018-06-04T10:37:34.320Z,100140.73
2018-06-04T10:40:04.999Z,100145.97
2018-06-04T10:42:42.189Z,100139.44
2018-06-04T10:45:12.744Z,100144.66
2018-06-04T10:47:43.364Z,100142.84
2018-06-04T10:50:13.954Z,100138.14
2018-06-04T10:52:44.539Z,100129.91
2018-06-04T10:55:15.144Z,100129.06
2018-06-04T10:57:45.765Z,100129.78
2018-06-04T11:00:16.376Z,100131.77
2018-06-04T11:02:46.927Z,100134.09
2018-06-04T11:05:17.514Z,100131.01
2018-06-04T11:07:48.100Z,100124.91
2018-06-04T11:10:18.703Z,100132.47
2018-06-04T11:12:49.365Z,100128.35
2018-06-04T11:15:19.961Z,100122.30
2018-06-04T11:17:50.538Z,100128.39
2018-06-04T11:20:21.083Z,100125.99
2018-06-04T11:22:51.772Z,100122.13
2018-06-04T11:25:22.331Z,100116.34
2018-06-04T11:27:52.951Z,100119.23
2018-06-04T11:30:23.579Z,100115.75
2018-06-04T11:32:54.207Z,100110.60
2018-06-04T11:35:24.986Z,100109.02
2018-06-04T11:37:55.833Z,100109.98
2018-06-04T11:40:26.522Z,100108.27
2018-06-04T11:42:57.412Z,100110.72
2018-06-04T11:45:28.037Z,100105.34
2018-06-04T11:47:58.648Z,100102.70
2018-06-04T11:50:29.277Z,100102.59
2018-06-04T11:52:59.855Z,100104.13
2018-06-04T11:55:30.473Z,100106.50
2018-06-04T11:58:01.092Z,100099.19
2018-06-04T12:00:31.734Z,100100.62
2018-06-04T12:03:02.436Z,100100.31
2018-06-04T12:05:33.150Z,100101.87
2018-06-04T12:08:03.784Z,100093.20
2018-06-04T12:10:34.428Z,100098.00
2018-06-04T12:13:05.116Z,100099.30
2018-06-04T12:15:35.796Z,100094.15
2018-06-04T12:18:06.469Z,100098.55
2018-06-04T12:20:37.072Z,100095.84
2018-06-04T12:23:07.706Z,100089.06
2018-06-04T12:25:38.407Z,100089.27
2018-06-04T12:28:09.073Z,100089.35
2018-06-04T12:30:39.842Z,100084.11
2018-06-04T12:33:10.550Z,100089.77
2018-06-04T12:35:41.260Z,100090.97
2018-06-04T12:38:11.897Z,100083.67
2018-06-04T12:40:42.596Z,100090.66
2018-06-04T12:43:13.301Z,100090.41
2018-06-04T12:45:43.923Z,100086.76
2018-06-04T12:48:14.624Z,100082.66
2018-06-04T12:50:45.254Z,100083.24
2018-06-04T12:53:15.947Z,100076.39
2018-06-04T12:55:46.526Z,100087.70
2018-06-04T12:58:17.257Z,100074.05
2018-06-04T13:00:47.929Z,100077.30
2018-06-04T13:03:18.573Z,100078.06
2018-06-04T13:05:49.224Z,100078.54
2018-06-04T13:08:19.868Z,100078.02
2018-06-04T13:10:50.469Z,100073.81
2018-06-04T13:13:21.018Z,100073.16
2018-06-04T13:15:51.646Z,100068.98
2018-06-04T13:18:22.209Z,100067.31
2018-06-04T13:20:52.857Z,100060.06
2018-06-04T13:23:23.385Z,100065.16
2018-06-04T13:25:54.054Z,100054.09
2018-06-04T13:28:24.780Z,100059.24
2018-06-04T13:30:55.348Z,100055.25
2018-06-04T13:33:25.983Z,100041.10
2018-06-04T13:35:56.554Z,100045.37
2018-06-04T13:38:27.103Z,100045.47
2018-06-04T13:40:57.677Z,100041.80
2018-06-04T13:43:28.257Z,100042.48
2018-06-04T13:45:58.864Z,100039.88
2018-06-04T13:48:29.413Z,100045.72
2018-06-04T13:50:59.981Z,100034.30
2018-06-04T13:53:30.542Z,100028.62
2018-06-04T13:56:01.225Z,100031.88
2018-06-04T13:58:31.840Z,100025.95
2018-06-04T14:01:02.450Z,100032.05
2018-06-04T14:03:33.141Z,100032.58
2018-06-04T14:06:03.794Z,100027.59
2018-06-04T14:08:34.474Z,100031.73
2018-06-04T14:11:05.165Z,100023.06
2018-06-04T14:13:35.810Z,100027.69
2018-06-04T14:16:06.521Z,100023.89
2018-06-04T14:18:37.231Z,100024.69
2018-06-04T14:21:08.149Z,100025.82
2018-06-04T14:23:38.812Z,100020.83
2018-06-04T14:26:09.449Z,100016.67
2018-06-04T14:28:40.090Z,100020.73
2018-06-04T14:31:10.789Z,100018.56
2018-06-04T14:33:41.448Z,100010.41
2018-06-04T14:36:12.076Z,100015.62
2018-06-04T14:38:42.647Z,100019.37
2018-06-04T14:41:13.351Z,100016.16
2018-06-04T14:43:43.966Z,100014.31
2018-06-04T14:46:14.607Z,100010.20
2018-06-04T14:48:45.273Z,100010.43
2018-06-04T14:51:15.915Z,100002.87
2018-06-04T14:53:46.604Z,100005.95
2018-06-04T14:56:17.285Z,100009.39
2018-06-04T14:58:47.873Z,100006.25
2018-06-04T15:01:18.485Z,100001.00
2018-06-04T15:03:49.077Z,100007.83
2018-06-04T15:06:19.657Z,99997.34
2018-06-04T15:08:50.300Z,100000.57
2018-06-04T15:11:21.009Z,99999.92
2018-06-04T15:13:51.702Z,99998.88
2018-06-04T15:16:22.297Z,100000.43
2018-06-04T15:18:52.900Z,99997.38
2018-06-04T15:21:23.701Z,99997.08
2018-06-04T15:23:54.264Z,99997.62
2018-06-04T15:26:24.965Z,99990.50
2018-06-04T15:28:55.530Z,99998.16
2018-06-04T15:31:26.149Z,99991.68
2018-06-04T15:34:27.451Z,99986.95
2018-06-04T15:36:58.101Z,99982.12
2018-06-04T15:39:28.712Z,99984.13
2018-06-04T15:41:59.398Z,99976.58
2018-06-04T15:44:30.013Z,99970.50
2018-06-04T15:47:00.569Z,99970.22
2018-06-04T15:49:31.141Z,99975.42
2018-06-04T15:52:01.928Z,99971.22
2018-06-04T15:54:32.523Z,99966.64
2018-06-04T15:57:03.126Z,99971.14
2018-06-04T15:59:33.746Z,99967.12
2018-06-04T16:02:05.029Z,99962.97
2018-06-04T16:04:35.649Z,99961.20
2018-06-04T16:07:06.343Z,99963.15
2018-06-04T16:09:37.113Z,99956.32
2018-06-04T16:12:07.750Z,99959.47
2018-06-04T16:14:38.315Z,99958.52
2018-06-04T16:17:08.927Z,99961.06
2018-06-04T16:19:39.560Z,99950.28
2018-06-04T16:22:10.253Z,99955.33
2018-06-04T16:24:40.844Z,99956.47
2018-06-04T16:27:11.470Z,99951.41
2018-06-04T16:29:42.055Z,99949.02
2018-06-04T16:32:12.691Z,99945.62
2018-06-04T16:34:43.304Z,99950.50
2018-06-04T16:37:14.011Z,99950.67
2018-06-04T16:39:44.670Z,99951.91
2018-06-04T16:42:15.294Z,99951.88
2018-06-04T16:44:45.956Z,99948.17
2018-06-04T16:47:16.540Z,99941.34
2018-06-04T16:49:47.236Z,99941.41
2018-06-04T16:52:17.916Z,99933.88
2018-06-04T16:54:48.532Z,99938.78
2018-06-04T16:57:19.073Z,99936.47
2018-06-04T16:59:49.692Z,99935.19
2018-06-04T17:02:20.253Z,99932.22
2018-06-04T17:04:50.580Z,99930.24
2018-06-04T17:07:21.081Z,99918.81
2018-06-04T17:09:51.674Z,99922.78
2018-06-04T17:12:22.310Z,99914.75
2018-06-04T17:14:52.887Z,99911.59
2018-06-04T17:17:24.356Z,99918.40
2018-06-04T17:19:54.989Z,99918.25
2018-06-04T17:22:25.602Z,99910.24
2018-06-04T17:24:56.179Z,99918.34
2018-06-04T17:27:26.842Z,99918.43
2018-06-04T17:29:57.443Z,99919.36
2018-06-04T17:32:28.067Z,99918.48
2018-06-04T17:34:58.693Z,99910.09
2018-06-04T17:37:29.285Z,99916.34
2018-06-04T17:39:59.924Z,99914.06
2018-06-04T17:42:30.587Z,99919.34
2018-06-04T17:45:01.241Z,99919.11
2018-06-04T17:47:32.140Z,99918.15
2018-06-04T17:50:02.768Z,99918.33
2018-06-04T17:52:33.385Z,99922.26
2018-06-04T17:55:04.062Z,99923.13
2018-06-04T17:57:34.650Z,99923.82
2018-06-04T18:00:05.711Z,99922.45
2018-06-04T18:02:36.601Z,99923.66
2018-06-04T18:05:07.224Z,99920.52
2018-06-04T18:07:37.984Z,99927.44
2018-06-04T18:10:08.564Z,99927.78
2018-06-04T18:12:39.222Z,99927.44
2018-06-04T18:15:09.853Z,99934.19
2018-06-04T18:17:40.608Z,99932.50
2018-06-04T18:20:11.310Z,99934.89
2018-06-04T18:22:42.125Z,99935.55
2018-06-04T18:25:12.825Z,99943.31
2018-06-04T18:27:43.508Z,99941.13
2018-06-04T18:30:14.108Z,99940.11
2018-06-04T18:32:44.666Z,99946.71
2018-06-04T18:35:15.269Z,99954.91
2018-06-04T18:37:45.870Z,99955.06
2018-06-04T18:40:16.558Z,99950.66
2018-06-04T18:42:46.820Z,99951.69
2018-06-04T18:45:17.336Z,99957.89
2018-06-04T18:47:47.937Z,99960.23
2018-06-04T18:50:18.595Z,99960.39
2018-06-04T18:52:49.191Z,99960.69
2018-06-04T18:55:19.844Z,99959.30
2018-06-04T18:57:50.121Z,99957.91
2018-06-04T19:00:20.659Z,99960.39
2018-06-04T19:02:51.274Z,99959.18
2018-06-04T19:05:21.865Z,99968.59
2018-06-04T19:07:52.470Z,99970.75
2018-06-04T19:10:23.098Z,99972.59
2018-06-04T19:12:53.676Z,99969.20
2018-06-04T19:15:24.309Z,99972.30
2018-06-04T19:17:54.891Z,99978.33
2018-06-04T19:20:25.493Z,99980.31
2018-06-04T19:22:56.085Z,99982.80
2018-06-04T19:25:26.682Z,99987.09
2018-06-04T19:27:57.284Z,99989.88
2018-06-04T19:30:27.922Z,99995.22
2018-06-04T19:32:58.525Z,99992.10
2018-06-04T19:35:29.105Z,99994.86
2018-06-04T19:37:59.737Z,99993.95
2018-06-04T19:40:30.388Z,100009.31
2018-06-04T19:43:01.054Z,100012.06
2018-06-04T19:45:31.807Z,100018.64
2018-06-04T19:48:02.410Z,100019.74
2018-06-04T19:50:33.077Z,100025.41
2018-06-04T19:53:03.772Z,100021.05
2018-06-04T19:55:34.363Z,100023.66
2018-06-04T19:58:05.140Z,100032.23
2018-06-04T20:00:35.753Z,100030.13
2018-06-04T20:03:06.711Z,100036.94
2018-06-04T20:05:37.377Z,100038.48
2018-06-04T20:08:07.718Z,100041.17
2018-06-04T20:10:38.221Z,100042.36
2018-06-04T20:13:08.857Z,100045.73
2018-06-04T20:15:39.443Z,100048.41
2018-06-04T20:18:10.093Z,100049.63
2018-06-04T20:20:40.675Z,100052.80
2018-06-04T20:23:11.352Z,100056.05
2018-06-04T20:25:41.961Z,100055.93
2018-06-04T20:28:12.569Z,100059.95
2018-06-04T20:30:43.204Z,100055.80
2018-06-04T20:33:13.768Z,100052.86
2018-06-04T20:35:44.360Z,100056.23
2018-06-04T20:38:14.988Z,100055.05
2018-06-04T20:40:45.636Z,100057.11
2018-06-04T20:43:16.264Z,100064.59
2018-06-04T20:45:46.943Z,100070.54
2018-06-04T20:48:17.524Z,100066.73
2018-06-04T20:50:48.190Z,100075.06
2018-06-04T20:53:18.829Z,100077.47
2018-06-04T20:55:49.555Z,100087.23
2018-06-04T20:58:20.182Z,100088.30
2018-06-04T21:00:50.850Z,100086.62
2018-06-04T21:03:21.555Z,100083.17
2018-06-04T21:05:53.479Z,100090.63
2018-06-04T21:08:24.110Z,100091.42
2018-06-04T21:10:56.827Z,100086.11
2018-06-04T21:13:27.535Z,100089.03
2018-06-04T21:15:58.190Z,100091.30
2018-06-04T21:18:28.927Z,100092.31
2018-06-04T21:20:59.572Z,100090.17
2018-06-04T21:23:30.163Z,100092.86
2018-06-04T21:26:00.801Z,100090.23
2018-06-04T21:28:31.533Z,100086.47
2018-06-04T21:31:02.142Z,100081.83
2018-06-04T21:33:32.823Z,100086.11
2018-06-04T21:36:03.526Z,100091.31
2018-06-04T21:38:34.342Z,100102.84
2018-06-04T21:41:05.077Z,100102.55
2018-06-04T21:43:35.718Z,100101.43
2018-06-04T21:46:06.416Z,100107.83
2018-06-04T21:48:37.130Z,100107.59
2018-06-04T21:51:07.894Z,100107.77
2018-06-04T21:53:38.471Z,100107.55
2018-06-04T21:56:09.132Z,100111.56
2018-06-04T21:58:39.811Z,100109.17
2018-06-04T22:01:10.539Z,100109.83
2018-06-04T22:03:41.276Z,100101.72
2018-06-04T22:06:11.955Z,100107.22
2018-06-04T22:08:42.721Z,100120.42
2018-06-04T22:11:13.377Z,100120.67
2018-06-04T22:13:44.630Z,100121.30
2018-06-04T22:16:15.353Z,100124.50
2018-06-04T22:18:46.065Z,100116.02
2018-06-04T22:21:16.787Z,100118.86
2018-06-04T22:23:47.398Z,100119.16
2018-06-04T22:26:18.018Z,100120.17
2018-06-04T22:28:48.659Z,100122.98
2018-06-04T22:31:19.283Z,100122.04
2018-06-04T22:33:49.940Z,100128.97
2018-06-04T22:36:20.552Z,100124.63
2018-06-04T22:38:51.260Z,100126.34
2018-06-04T22:41:21.848Z,100128.17
2018-06-04T22:43:52.475Z,100136.80
2018-06-04T22:46:23.146Z,100136.67
2018-06-04T22:48:53.882Z,100135.95
2018-06-04T22:51:24.218Z,100135.86
2018-06-04T22:53:54.766Z,100132.61
2018-06-04T22:56:25.476Z,100134.05
2018-06-04T22:58:56.254Z,100129.94
2018-06-04T23:01:26.893Z,100131.41
2018-06-04T23:03:57.782Z,100131.59
2018-06-04T23:06:28.551Z,100132.20
2018-06-04T23:08:59.332Z,100137.68
2018-06-04T23:11:29.987Z,100134.73
2018-06-04T23:14:00.716Z,100127.00
2018-06-04T23:16:31.435Z,100129.32
2018-06-04T23:19:02.179Z,100125.32
2018-06-04T23:21:32.918Z,100127.98
2018-06-04T23:24:03.668Z,100131.77
2018-06-04T23:26:34.332Z,100132.97
2018-06-04T23:29:05.101Z,100140.28
2018-06-04T23:31:35.741Z,100143.56
2018-06-04T23:34:06.471Z,100135.91
2018-06-04T23:36:37.222Z,100136.04
2018-06-04T23:39:09.512Z,100133.47
2018-06-04T23:41:40.237Z,100138.33
2018-06-04T23:44:10.940Z,100137.84
2018-06-04T23:46:42.306Z,100140.51
2018-06-04T23:49:13.248Z,100138.35
2018-06-04T23:51:44.042Z,100136.53
2018-06-04T23:54:14.893Z,100133.48
2018-06-04T23:56:45.758Z,100133.97
2018-06-04T23:59:16.716Z,100129.38
